createdAt,value
2023-01-08T00:07:43.849Z,100
2023-01-08T00:17:43.939Z,100
2023-01-08T00:27:43.798Z,100
2023-01-08T00:37:43.975Z,100
2023-01-08T00:47:43.847Z,100
2023-01-08T00:57:43.869Z,100
2023-01-08T01:07:43.878Z,100
2023-01-08T01:17:44.003Z,100
2023-01-08T01:27:43.891Z,100
2023-01-08T01:37:44.011Z,100
2023-01-08T01:47:43.969Z,100
2023-01-08T02:07:44.044Z,100
2023-01-08T02:17:43.948Z,100
2023-01-08T02:27:44.065Z,100
2023-01-08T02:37:43.947Z,100
2023-01-08T02:47:44.048Z,100
2023-01-08T02:57:43.981Z,100
2023-01-08T03:07:44.101Z,100
2023-01-08T03:27:44.159Z,100
2023-01-08T03:37:43.998Z,100
2023-01-08T03:47:44.137Z,100
2023-01-08T03:57:44.033Z,100
2023-01-08T04:07:44.136Z,100
2023-01-08T04:17:44.049Z,100
2023-01-08T04:27:44.202Z,100
2023-01-08T04:37:44.078Z,100
2023-01-08T04:47:44.324Z,100
2023-01-08T04:57:44.123Z,100
2023-01-08T05:07:44.234Z,100
2023-01-08T05:17:44.109Z,100
2023-01-08T05:27:44.222Z,100
2023-01-08T05:37:44.142Z,100
2023-01-08T05:47:44.311Z,100
2023-01-08T05:57:44.144Z,100
2023-01-08T06:07:44.290Z,100
2023-01-08T06:17:44.193Z,100
2023-01-08T06:27:44.306Z,100
2023-01-08T06:37:44.199Z,100
2023-01-08T06:47:44.376Z,100
2023-01-08T06:57:44.213Z,100
2023-01-08T07:07:44.332Z,100
2023-01-08T07:17:44.250Z,100
2023-01-08T07:27:44.388Z,100
2023-01-08T07:37:44.303Z,100
2023-01-08T07:47:44.434Z,100
2023-01-08T07:57:44.280Z,100
2023-01-08T08:07:44.407Z,100
2023-01-08T08:17:44.340Z,100
2023-01-08T08:27:44.470Z,100
2023-01-08T08:37:44.334Z,100
2023-01-08T08:47:44.471Z,100
2023-01-08T08:57:44.373Z,100
2023-01-08T09:07:44.509Z,100
2023-01-08T09:17:44.358Z,100
2023-01-08T09:27:44.470Z,100
2023-01-08T09:37:44.357Z,100
2023-01-08T09:47:44.399Z,100
2023-01-08T09:57:44.377Z,100
2023-01-08T10:07:44.527Z,100
2023-01-08T10:17:44.365Z,100
2023-01-08T10:27:44.469Z,97
2023-01-08T10:37:44.351Z,100
2023-01-08T10:47:44.561Z,100
2023-01-08T10:57:44.345Z,100
2023-01-08T11:07:44.359Z,100
2023-01-08T11:17:44.377Z,100
2023-01-08T11:27:44.424Z,100
2023-01-08T11:37:44.359Z,100
2023-01-08T11:47:44.366Z,98
2023-01-08T11:57:44.347Z,98
2023-01-08T12:07:44.516Z,95
2023-01-08T12:17:44.360Z,86
2023-01-08T12:27:59.634Z,88
2023-01-08T12:37:44.347Z,88
2023-01-08T12:47:44.368Z,90
2023-01-08T12:57:44.342Z,90
2023-01-08T13:07:44.354Z,87
2023-01-08T13:17:44.334Z,90
2023-01-08T13:27:44.372Z,85
2023-01-08T13:37:44.332Z,86
2023-01-08T13:47:44.337Z,87
2023-01-08T13:57:44.327Z,91
2023-01-08T14:07:44.374Z,91
2023-01-08T14:17:44.320Z,90
2023-01-08T14:27:44.363Z,88
2023-01-08T14:37:44.318Z,89
2023-01-08T14:47:44.366Z,93
2023-01-08T14:57:44.301Z,98
2023-01-08T15:07:44.331Z,100
2023-01-08T15:17:44.318Z,100
2023-01-08T15:27:44.360Z,100
2023-01-08T15:37:44.327Z,100
2023-01-08T15:47:44.355Z,100
2023-01-08T15:57:44.320Z,100
2023-01-08T16:07:44.340Z,100
2023-01-08T16:17:44.358Z,100
2023-01-08T16:27:44.372Z,100
2023-01-08T16:37:44.354Z,100
2023-01-08T16:47:44.366Z,100
2023-01-08T16:57:44.345Z,100
2023-01-08T17:07:44.418Z,100
2023-01-08T17:17:44.448Z,100
2023-01-08T17:27:44.498Z,100
2023-01-08T17:37:44.371Z,100
2023-01-08T17:47:44.801Z,100
2023-01-08T17:57:44.437Z,100
2023-01-08T18:07:44.408Z,100
2023-01-08T18:17:44.389Z,100
2023-01-08T18:27:44.384Z,100
2023-01-08T18:37:44.361Z,100
2023-01-08T18:47:44.368Z,100
2023-01-08T18:57:44.370Z,100
2023-01-08T19:07:44.363Z,100
2023-01-08T19:17:44.350Z,100
2023-01-08T19:27:44.413Z,100
2023-01-08T19:37:44.380Z,100
2023-01-08T19:47:44.420Z,100
2023-01-08T19:57:44.404Z,100
2023-01-08T20:07:44.408Z,100
2023-01-08T20:17:44.414Z,100
2023-01-08T20:27:44.410Z,100
2023-01-08T20:37:46.707Z,100
2023-01-08T20:47:44.396Z,100
2023-01-08T20:57:44.393Z,100
2023-01-08T21:07:44.442Z,100
2023-01-08T21:17:44.398Z,100
2023-01-08T21:27:44.502Z,100
2023-01-08T21:37:44.418Z,100
2023-01-08T21:47:44.434Z,100
2023-01-08T21:57:44.426Z,100
2023-01-08T22:07:44.440Z,100
2023-01-08T22:17:44.405Z,100
2023-01-08T22:27:44.436Z,100
2023-01-08T22:37:44.421Z,100
2023-01-08T22:47:44.467Z,100
2023-01-08T22:57:44.562Z,100
2023-01-08T23:07:44.470Z,100
2023-01-08T23:17:52.024Z,100
2023-01-08T23:27:44.487Z,100
2023-01-08T23:37:44.446Z,100
2023-01-08T23:47:44.484Z,100
2023-01-08T23:57:44.455Z,100
